Danville, Ohio
Current Conditions -  °F | °C
As of 1:16 AM on Thursday 23 Oct 2014 (Local Time) from K4I3 Reporting Station
Clear Clear  
Wind Chill: 41°   Ceiling: Unl
Heat Index: 45°   Visibility: 10mi
Dew Point: 41°   Wind: 6mph
Humidity: 87%   Direction: 320°NW
Pressure: 30.22"   Gusts: NA
Location:  40.45°N, 82.26°W
Report Text: K4I3 230516Z AUTO 32005KT 10SM CLR 07/05 A3022 RMK AO2
Loading
Personal Weather Stations






























Interactive Weather Map
Tropical Storm Tracking
New forecast layout! Learn more

10-Day Weather Forecast

Advertisements
Track Severe Weather on mobile